createdAt,value
2023-03-02T00:00:10.834Z,47.26
2023-03-02T00:01:44.190Z,47.55
2023-03-02T00:03:18.141Z,47.65
2023-03-02T00:04:51.453Z,47.47
2023-03-02T00:06:23.340Z,47.88
2023-03-02T00:07:55.203Z,48.15
2023-03-02T00:09:28.674Z,47.55
2023-03-02T00:11:02.228Z,47.76
2023-03-02T00:12:35.215Z,48.70
2023-03-02T00:14:06.872Z,47.44
2023-03-02T00:15:38.463Z,47.65
2023-03-02T00:17:11.608Z,47.57
2023-03-02T00:18:43.211Z,47.47
2023-03-02T00:20:14.875Z,47.32
2023-03-02T00:21:47.043Z,47.42
2023-03-02T00:23:19.051Z,48.04
2023-03-02T00:24:50.598Z,47.75
2023-03-02T00:26:23.864Z,47.20
2023-03-02T00:27:57.503Z,47.32
2023-03-02T00:29:30.159Z,47.28
2023-03-02T00:31:04.473Z,47.13
2023-03-02T00:32:36.218Z,47.13
2023-03-02T00:34:08.353Z,47.45
2023-03-02T00:35:40.941Z,47.24
2023-03-02T00:37:12.688Z,46.97
2023-03-02T00:38:44.513Z,47.54
2023-03-02T00:40:16.274Z,47.00
2023-03-02T00:41:49.728Z,47.50
2023-03-02T00:43:27.213Z,47.02
2023-03-02T00:45:01.467Z,46.86
2023-03-02T00:46:33.324Z,47.19
2023-03-02T00:48:05.172Z,47.45
2023-03-02T00:49:37.381Z,47.26
2023-03-02T00:51:09.354Z,47.40
2023-03-02T00:52:41.258Z,46.92
2023-03-02T00:54:13.297Z,47.14
2023-03-02T00:55:52.501Z,46.80
2023-03-02T00:57:25.927Z,47.12
2023-03-02T00:59:04.806Z,47.50
2023-03-02T01:00:37.386Z,47.36
2023-03-02T01:02:11.821Z,47.22
2023-03-02T01:03:43.492Z,47.00
2023-03-02T01:05:16.073Z,47.73
2023-03-02T01:06:48.018Z,47.35
2023-03-02T01:08:20.303Z,47.97
2023-03-02T01:09:52.358Z,47.28
2023-03-02T01:11:24.425Z,48.04
2023-03-02T01:12:57.536Z,47.37
2023-03-02T01:14:29.377Z,47.64
2023-03-02T01:16:01.211Z,47.28
2023-03-02T01:17:32.829Z,47.30
2023-03-02T01:19:04.560Z,47.59
2023-03-02T01:20:36.128Z,47.41
2023-03-02T01:22:08.270Z,47.76
2023-03-02T01:23:40.034Z,47.79
2023-03-02T01:25:13.176Z,47.49
2023-03-02T01:26:45.198Z,47.63
2023-03-02T01:28:18.126Z,47.30
2023-03-02T01:29:50.773Z,47.50
2023-03-02T01:31:22.378Z,47.46
2023-03-02T01:32:54.076Z,47.74
2023-03-02T01:34:26.283Z,47.69
2023-03-02T01:35:58.219Z,47.59
2023-03-02T01:37:29.861Z,47.26
2023-03-02T01:39:01.561Z,47.62
2023-03-02T01:40:33.820Z,47.06
2023-03-02T01:42:05.730Z,47.37
2023-03-02T01:43:38.660Z,47.60
2023-03-02T01:45:25.127Z,47.84
2023-03-02T01:46:56.793Z,47.38
2023-03-02T01:48:30.613Z,47.25
2023-03-02T01:50:04.050Z,47.68
2023-03-02T01:51:43.498Z,47.53
2023-03-02T01:53:16.195Z,47.56
2023-03-02T01:54:49.868Z,47.95
2023-03-02T01:56:23.786Z,48.01
2023-03-02T01:57:58.748Z,48.78
2023-03-02T01:59:33.496Z,48.79
2023-03-02T02:01:06.633Z,48.93
2023-03-02T02:02:42.584Z,48.70
2023-03-02T02:04:14.821Z,48.56
2023-03-02T02:05:51.325Z,49.13
2023-03-02T02:07:23.017Z,49.16
2023-03-02T02:08:56.384Z,48.82
2023-03-02T02:10:30.112Z,49.48
2023-03-02T02:12:02.074Z,49.40
2023-03-02T02:13:33.753Z,49.21
2023-03-02T02:15:08.196Z,49.52
2023-03-02T02:16:40.481Z,49.37
2023-03-02T02:18:12.233Z,49.70
2023-03-02T02:19:49.631Z,49.99
2023-03-02T02:21:22.124Z,50.40
2023-03-02T02:23:00.555Z,49.89
2023-03-02T02:24:37.684Z,50.35
2023-03-02T02:26:22.226Z,50.52
2023-03-02T02:27:54.322Z,50.52
2023-03-02T02:29:30.324Z,50.93
2023-03-02T02:31:05.986Z,51.04
2023-03-02T02:32:39.027Z,51.32
2023-03-02T02:34:13.221Z,51.39
2023-03-02T02:35:45.811Z,51.50
2023-03-02T02:37:20.368Z,51.66
2023-03-02T02:38:54.637Z,51.59
2023-03-02T02:40:40.270Z,51.54
2023-03-02T02:42:16.794Z,51.38
2023-03-02T02:43:50.424Z,51.45
2023-03-02T02:45:23.007Z,51.13
2023-03-02T02:46:54.793Z,51.33
2023-03-02T02:48:31.023Z,51.20
2023-03-02T02:50:02.648Z,51.25
2023-03-02T02:51:34.562Z,51.43
2023-03-02T02:53:11.106Z,51.36
2023-03-02T02:54:44.477Z,51.02
2023-03-02T02:56:17.128Z,51.22
2023-03-02T02:57:51.092Z,51.24
2023-03-02T02:59:24.283Z,51.11
2023-03-02T03:00:55.963Z,51.30
2023-03-02T03:02:28.356Z,51.44
2023-03-02T03:04:02.113Z,51.24
2023-03-02T03:05:33.778Z,50.92
2023-03-02T03:07:06.168Z,51.33
2023-03-02T03:08:56.014Z,51.05
2023-03-02T03:10:44.215Z,50.95
2023-03-02T03:12:17.444Z,51.08
2023-03-02T03:13:52.139Z,51.12
2023-03-02T03:15:23.757Z,50.96
2023-03-02T03:16:55.473Z,51.08
2023-03-02T03:18:29.199Z,50.63
2023-03-02T03:20:06.499Z,50.66
2023-03-02T03:21:41.145Z,50.85
2023-03-02T03:23:12.914Z,50.92
2023-03-02T03:24:45.320Z,51.07
2023-03-02T03:26:17.124Z,50.90
2023-03-02T03:27:50.040Z,50.86
2023-03-02T03:29:25.050Z,51.15
2023-03-02T03:30:58.617Z,51.35
2023-03-02T03:32:30.342Z,51.00
2023-03-02T03:34:02.405Z,51.11
2023-03-02T03:35:38.178Z,50.90
2023-03-02T03:37:10.961Z,50.87
2023-03-02T03:38:42.753Z,51.17
2023-03-02T03:40:15.046Z,50.85
2023-03-02T03:41:48.700Z,50.66
2023-03-02T03:43:20.496Z,50.88
2023-03-02T03:44:57.934Z,50.89
2023-03-02T03:46:30.284Z,50.93
2023-03-02T03:48:02.051Z,51.06
2023-03-02T03:49:33.943Z,50.74
2023-03-02T03:51:05.800Z,50.96
2023-03-02T03:52:38.833Z,50.63
2023-03-02T03:54:21.547Z,50.68
2023-03-02T03:55:53.402Z,50.85
2023-03-02T03:57:25.237Z,51.01
2023-03-02T03:59:07.066Z,50.93
2023-03-02T04:00:45.499Z,50.70
2023-03-02T04:02:17.681Z,50.77
2023-03-02T04:03:49.255Z,51.01
2023-03-02T04:05:21.225Z,50.98
2023-03-02T04:06:56.297Z,51.08
2023-03-02T04:08:28.453Z,50.75
2023-03-02T04:10:03.706Z,50.59
2023-03-02T04:11:39.369Z,50.75
2023-03-02T04:13:11.055Z,50.79
2023-03-02T04:14:42.593Z,50.94
2023-03-02T04:16:15.529Z,50.92
2023-03-02T04:17:47.510Z,50.94
2023-03-02T04:19:21.962Z,51.00
2023-03-02T04:20:56.046Z,51.19
2023-03-02T04:22:27.873Z,51.08
2023-03-02T04:23:59.599Z,50.77
2023-03-02T04:25:32.558Z,51.34
2023-03-02T04:27:12.854Z,51.30
2023-03-02T04:28:45.031Z,51.11
2023-03-02T04:30:17.166Z,51.15
2023-03-02T04:31:50.482Z,51.33
2023-03-02T04:33:23.274Z,50.95
2023-03-02T04:34:54.969Z,51.45
2023-03-02T04:36:26.938Z,51.57
2023-03-02T04:37:59.051Z,51.90
2023-03-02T04:39:31.164Z,51.68
2023-03-02T04:41:04.083Z,51.81
2023-03-02T04:42:35.904Z,51.95
2023-03-02T04:44:07.504Z,52.01
2023-03-02T04:45:39.835Z,52.09
2023-03-02T04:47:12.860Z,52.01
2023-03-02T04:48:44.575Z,52.13
2023-03-02T04:50:16.309Z,52.26
2023-03-02T04:51:49.237Z,51.97
2023-03-02T04:53:20.846Z,52.03
2023-03-02T04:54:52.398Z,51.97
2023-03-02T04:56:23.988Z,51.92
2023-03-02T04:57:55.545Z,52.14
2023-03-02T04:59:27.788Z,52.75
2023-03-02T05:01:02.284Z,52.26
2023-03-02T05:02:35.337Z,52.52
2023-03-02T05:04:07.506Z,52.44
2023-03-02T05:05:39.178Z,52.22
2023-03-02T05:07:10.893Z,51.93
2023-03-02T05:08:42.500Z,52.02
2023-03-02T05:10:15.049Z,52.03
2023-03-02T05:11:46.858Z,51.84
2023-03-02T05:13:18.406Z,51.73
2023-03-02T05:14:49.976Z,51.67
2023-03-02T05:16:21.946Z,51.62
2023-03-02T05:17:55.210Z,51.28
2023-03-02T05:19:29.507Z,51.43
2023-03-02T05:21:01.089Z,51.51
2023-03-02T05:22:32.653Z,51.41
2023-03-02T05:24:04.385Z,51.42
2023-03-02T05:25:37.705Z,51.43
2023-03-02T05:27:09.349Z,51.48
2023-03-02T05:28:41.214Z,51.43
2023-03-02T05:30:13.729Z,51.52
2023-03-02T05:31:46.226Z,51.78
2023-03-02T05:33:21.280Z,51.71
2023-03-02T05:34:52.889Z,51.61
2023-03-02T05:36:24.481Z,51.23
2023-03-02T05:37:56.046Z,51.34
2023-03-02T05:39:28.292Z,51.30
2023-03-02T05:40:59.918Z,51.37
2023-03-02T05:42:32.103Z,51.33
2023-03-02T05:44:04.268Z,51.03
2023-03-02T05:45:37.900Z,51.24
2023-03-02T05:47:09.973Z,50.91
2023-03-02T05:48:43.008Z,50.82
2023-03-02T05:50:14.629Z,50.90
2023-03-02T05:51:46.497Z,51.05
2023-03-02T05:53:18.222Z,50.47
2023-03-02T05:54:49.927Z,50.79
2023-03-02T05:56:22.523Z,50.75
2023-03-02T05:57:54.659Z,50.42
2023-03-02T05:59:26.252Z,50.54
2023-03-02T06:00:57.924Z,50.34
2023-03-02T06:02:29.960Z,50.45
2023-03-02T06:04:03.292Z,50.56
2023-03-02T06:05:37.845Z,50.38
2023-03-02T06:07:11.180Z,49.92
2023-03-02T06:08:43.319Z,50.22
2023-03-02T06:10:15.076Z,49.90
2023-03-02T06:11:46.585Z,49.84
2023-03-02T06:13:18.123Z,49.95
2023-03-02T06:14:49.715Z,49.85
2023-03-02T06:16:21.923Z,49.88
2023-03-02T06:17:53.553Z,50.09
2023-03-02T06:19:26.828Z,50.19
2023-03-02T06:20:59.746Z,49.74
2023-03-02T06:22:31.602Z,49.95
2023-03-02T06:24:03.373Z,49.96
2023-03-02T06:25:36.931Z,50.17
2023-03-02T06:27:08.524Z,49.99
2023-03-02T06:28:52.065Z,50.33
2023-03-02T06:30:25.789Z,49.96
2023-03-02T06:31:57.474Z,50.16
2023-03-02T06:33:30.477Z,50.07
2023-03-02T06:35:05.956Z,50.22
2023-03-02T06:36:40.404Z,50.18
2023-03-02T06:38:12.002Z,49.79
2023-03-02T06:39:43.607Z,49.93
2023-03-02T06:41:17.548Z,50.00
2023-03-02T06:42:49.037Z,49.81
2023-03-02T06:44:20.738Z,49.91
2023-03-02T06:45:52.569Z,49.67
2023-03-02T06:47:24.505Z,49.66
2023-03-02T06:48:56.176Z,49.90
2023-03-02T06:50:29.927Z,49.99
2023-03-02T06:52:02.591Z,49.85
2023-03-02T06:53:34.518Z,49.98
2023-03-02T06:55:06.728Z,50.02
2023-03-02T06:56:41.032Z,49.37
2023-03-02T06:58:13.212Z,49.77
2023-03-02T06:59:44.965Z,49.69
2023-03-02T07:01:17.380Z,49.44
2023-03-02T07:02:50.095Z,49.76
2023-03-02T07:04:21.780Z,50.21
2023-03-02T07:05:54.863Z,49.53
2023-03-02T07:07:27.787Z,49.78
2023-03-02T07:08:59.493Z,50.19
2023-03-02T07:10:31.345Z,49.90
2023-03-02T07:12:03.093Z,50.13
2023-03-02T07:13:34.856Z,49.84
2023-03-02T07:15:12.020Z,49.99
2023-03-02T07:16:43.778Z,50.03
2023-03-02T07:18:15.549Z,50.25
2023-03-02T07:19:47.549Z,50.03
2023-03-02T07:21:20.541Z,50.06
2023-03-02T07:22:52.128Z,50.13
2023-03-02T07:24:23.747Z,49.47
2023-03-02T07:25:55.346Z,49.69
2023-03-02T07:27:27.836Z,49.56
2023-03-02T07:28:59.460Z,49.24
2023-03-02T07:30:33.613Z,49.43
2023-03-02T07:32:06.859Z,49.22
2023-03-02T07:33:39.172Z,48.90
2023-03-02T07:35:10.846Z,49.29
2023-03-02T07:36:44.173Z,49.10
2023-03-02T07:38:15.856Z,48.94
2023-03-02T07:39:47.651Z,48.86
2023-03-02T07:41:19.337Z,49.05
2023-03-02T07:42:50.873Z,48.89
2023-03-02T07:44:23.326Z,49.25
2023-03-02T07:45:55.221Z,48.77
2023-03-02T07:47:26.823Z,49.08
2023-03-02T07:48:59.201Z,49.00
2023-03-02T07:50:30.804Z,48.83
2023-03-02T07:52:06.156Z,48.19
2023-03-02T07:53:37.902Z,48.48
2023-03-02T07:55:09.975Z,48.21
2023-03-02T07:56:41.621Z,47.86
2023-03-02T07:58:13.240Z,47.53
2023-03-02T07:59:44.938Z,47.58
2023-03-02T08:01:16.577Z,47.32
2023-03-02T08:02:48.231Z,47.46
2023-03-02T08:04:19.815Z,47.82
2023-03-02T08:05:51.531Z,47.17
2023-03-02T08:07:24.961Z,47.48
2023-03-02T08:08:56.740Z,47.66
2023-03-02T08:10:28.420Z,47.19
2023-03-02T08:12:00.561Z,47.29
2023-03-02T08:13:33.180Z,47.32
2023-03-02T08:15:06.758Z,46.92
2023-03-02T08:16:40.395Z,46.89
2023-03-02T08:18:12.085Z,46.82
2023-03-02T08:19:43.669Z,46.14
2023-03-02T08:21:16.472Z,45.97
2023-03-02T08:22:51.752Z,46.18
2023-03-02T08:24:23.363Z,45.82
2023-03-02T08:25:55.063Z,45.77
2023-03-02T08:27:26.775Z,45.88
2023-03-02T08:28:58.520Z,45.61
2023-03-02T08:30:30.094Z,45.64
2023-03-02T08:32:02.005Z,45.63
2023-03-02T08:33:36.465Z,45.01
2023-03-02T08:35:08.821Z,45.41
2023-03-02T08:36:42.066Z,45.35
2023-03-02T08:38:16.341Z,45.58
2023-03-02T08:39:48.554Z,45.29
2023-03-02T08:41:21.241Z,45.25
2023-03-02T08:42:57.063Z,45.20
2023-03-02T08:44:28.592Z,45.22
2023-03-02T08:46:00.408Z,44.83
2023-03-02T08:47:32.612Z,44.78
2023-03-02T08:49:04.193Z,44.55
2023-03-02T08:50:35.970Z,44.77
2023-03-02T08:52:07.852Z,44.51
2023-03-02T08:53:41.971Z,44.45
2023-03-02T08:55:14.057Z,44.61
2023-03-02T08:56:45.721Z,44.30
2023-03-02T08:58:17.441Z,44.22
2023-03-02T08:59:49.620Z,44.21
2023-03-02T09:01:22.382Z,44.16
2023-03-02T09:02:54.297Z,43.78
2023-03-02T09:04:26.050Z,43.69
2023-03-02T09:05:57.900Z,43.97
2023-03-02T09:07:30.578Z,43.87
2023-03-02T09:09:04.963Z,43.68
2023-03-02T09:10:36.955Z,43.59
2023-03-02T09:12:08.530Z,43.71
2023-03-02T09:13:40.915Z,43.31
2023-03-02T09:15:12.538Z,43.09
2023-03-02T09:16:45.676Z,43.28
2023-03-02T09:18:17.259Z,43.00
2023-03-02T09:19:49.001Z,42.83
2023-03-02T09:21:21.150Z,42.02
2023-03-02T09:22:52.731Z,41.42
2023-03-02T09:24:25.703Z,41.66
2023-03-02T09:25:57.375Z,42.14
2023-03-02T09:27:29.432Z,42.11
2023-03-02T09:29:01.143Z,41.53
2023-03-02T09:30:32.876Z,41.54
2023-03-02T09:32:04.941Z,41.92
2023-03-02T09:33:36.826Z,41.01
2023-03-02T09:35:08.747Z,41.75
2023-03-02T09:36:40.336Z,41.46
2023-03-02T09:38:15.969Z,40.37
2023-03-02T09:39:49.146Z,40.82
2023-03-02T09:41:38.349Z,40.64
2023-03-02T09:43:19.521Z,40.48
2023-03-02T09:45:08.950Z,40.44
2023-03-02T09:46:44.650Z,39.55
2023-03-02T09:48:21.511Z,40.04
2023-03-02T09:50:00.109Z,40.07
2023-03-02T09:51:34.004Z,39.97
2023-03-02T09:53:23.474Z,39.36
2023-03-02T09:54:57.355Z,39.72
2023-03-02T09:56:32.192Z,39.97
2023-03-02T09:58:05.882Z,39.42
2023-03-02T09:59:42.744Z,39.36
2023-03-02T10:01:17.702Z,39.14
2023-03-02T10:02:50.690Z,39.43
2023-03-02T10:04:24.261Z,39.83
2023-03-02T10:05:56.210Z,39.33
2023-03-02T10:07:29.090Z,39.79
2023-03-02T10:09:03.552Z,39.66
2023-03-02T10:10:40.153Z,39.37
2023-03-02T10:12:23.333Z,38.68
2023-03-02T10:13:58.513Z,38.96
2023-03-02T10:15:37.441Z,39.04
2023-03-02T10:17:22.936Z,38.37
2023-03-02T10:19:02.754Z,38.65
2023-03-02T10:20:37.964Z,38.78
2023-03-02T10:22:13.161Z,38.39
2023-03-02T10:23:46.154Z,38.68
2023-03-02T10:25:23.454Z,38.56
2023-03-02T10:26:58.697Z,38.25
2023-03-02T10:28:32.689Z,38.51
2023-03-02T10:30:08.013Z,38.06
2023-03-02T10:31:40.969Z,38.55
2023-03-02T10:33:15.107Z,38.24
2023-03-02T10:34:48.102Z,38.95
2023-03-02T10:36:23.397Z,37.71
2023-03-02T10:37:57.442Z,38.39
2023-03-02T10:39:29.229Z,38.21
2023-03-02T10:41:02.274Z,38.21
2023-03-02T10:42:37.430Z,38.36
2023-03-02T10:44:15.059Z,37.67
2023-03-02T10:45:57.801Z,37.77
2023-03-02T10:47:30.034Z,37.73
2023-03-02T10:49:01.721Z,37.75
2023-03-02T10:50:33.452Z,37.38
2023-03-02T10:52:06.402Z,37.49
2023-03-02T10:53:38.061Z,36.60
2023-03-02T10:55:13.504Z,37.14
2023-03-02T10:56:49.686Z,37.02
2023-03-02T10:58:25.865Z,37.49
2023-03-02T10:59:59.903Z,37.59
2023-03-02T11:01:31.597Z,37.48
2023-03-02T11:03:04.911Z,37.07
2023-03-02T11:04:36.689Z,37.01
2023-03-02T11:06:16.713Z,36.78
2023-03-02T11:07:55.102Z,36.10
2023-03-02T11:09:28.020Z,36.89
2023-03-02T11:11:01.447Z,36.84
2023-03-02T11:12:36.274Z,37.35
2023-03-02T11:14:14.033Z,37.01
2023-03-02T11:15:47.223Z,36.45
2023-03-02T11:17:29.838Z,36.29
2023-03-02T11:19:03.449Z,36.55
2023-03-02T11:20:38.518Z,36.34
2023-03-02T11:22:16.738Z,36.57
2023-03-02T11:23:54.431Z,36.34
2023-03-02T11:25:29.421Z,36.45
2023-03-02T11:27:03.479Z,36.62
2023-03-02T11:28:39.362Z,36.67
2023-03-02T11:30:15.918Z,35.83
2023-03-02T11:31:49.911Z,36.19
2023-03-02T11:33:24.677Z,35.98
2023-03-02T11:34:58.049Z,35.82
2023-03-02T11:36:35.770Z,35.78
2023-03-02T11:38:13.630Z,36.00
2023-03-02T11:39:56.932Z,35.71
2023-03-02T11:41:30.015Z,35.83
2023-03-02T11:43:04.927Z,35.39
2023-03-02T11:44:37.976Z,35.45
2023-03-02T11:46:22.278Z,34.93
2023-03-02T11:48:02.565Z,35.33
2023-03-02T11:49:37.549Z,35.33
2023-03-02T11:51:13.098Z,34.55
2023-03-02T11:52:46.741Z,34.83
2023-03-02T11:54:24.328Z,34.03
2023-03-02T11:55:56.435Z,34.45
2023-03-02T11:57:29.748Z,34.89
2023-03-02T11:59:05.207Z,35.07
2023-03-02T12:00:38.126Z,34.84
2023-03-02T12:02:14.154Z,34.60
2023-03-02T12:03:46.581Z,35.19
2023-03-02T12:05:25.187Z,34.61
2023-03-02T12:06:59.777Z,33.98
2023-03-02T12:08:33.886Z,33.74
2023-03-02T12:10:07.028Z,34.24
2023-03-02T12:11:40.608Z,34.27
2023-03-02T12:13:18.225Z,33.78
2023-03-02T12:14:49.829Z,33.76
2023-03-02T12:16:23.137Z,33.95
2023-03-02T12:17:56.898Z,33.70
2023-03-02T12:19:30.195Z,33.66
2023-03-02T12:21:03.203Z,33.61
2023-03-02T12:22:35.696Z,33.81
2023-03-02T12:24:23.023Z,34.01
2023-03-02T12:26:02.821Z,33.96
2023-03-02T12:27:36.978Z,33.42
2023-03-02T12:29:22.937Z,33.38
2023-03-02T12:31:02.961Z,33.45
2023-03-02T12:32:36.108Z,33.86
2023-03-02T12:34:20.905Z,33.58
2023-03-02T12:36:03.096Z,33.36
2023-03-02T12:37:42.840Z,33.39
2023-03-02T12:39:22.650Z,33.01
2023-03-02T12:41:03.736Z,33.54
2023-03-02T12:42:44.064Z,33.19
2023-03-02T12:44:22.214Z,33.48
2023-03-02T12:46:04.477Z,33.30
2023-03-02T12:47:38.634Z,32.94
2023-03-02T12:49:30.883Z,33.38
2023-03-02T12:51:03.314Z,33.43
2023-03-02T12:52:35.953Z,32.31
2023-03-02T12:54:12.154Z,31.78
2023-03-02T12:55:43.880Z,31.85
2023-03-02T12:57:16.737Z,31.53
2023-03-02T12:58:49.206Z,31.62
2023-03-02T13:00:22.378Z,30.90
2023-03-02T13:02:04.217Z,30.70
2023-03-02T13:03:45.463Z,29.27
2023-03-02T13:05:20.260Z,29.61
2023-03-02T13:06:52.815Z,28.64
2023-03-02T13:08:27.606Z,28.49
2023-03-02T13:09:59.372Z,28.83
2023-03-02T13:11:32.896Z,28.58
2023-03-02T13:13:14.136Z,29.18
2023-03-02T13:14:47.417Z,28.78
2023-03-02T13:16:20.699Z,29.16
2023-03-02T13:17:54.942Z,28.40
2023-03-02T13:19:27.374Z,28.82
2023-03-02T13:21:01.171Z,28.92
2023-03-02T13:22:32.986Z,28.31
2023-03-02T13:24:20.220Z,27.77
2023-03-02T13:25:53.046Z,28.11
2023-03-02T13:27:25.154Z,27.86
2023-03-02T13:29:01.622Z,27.72
2023-03-02T13:30:34.326Z,28.39
2023-03-02T13:32:20.246Z,28.11
2023-03-02T13:33:53.208Z,27.95
2023-03-02T13:35:26.614Z,26.45
2023-03-02T13:36:59.778Z,26.40
2023-03-02T13:38:36.365Z,26.36
2023-03-02T13:40:34.180Z,27.03
2023-03-02T13:42:24.853Z,27.27
2023-03-02T13:43:57.110Z,26.47
2023-03-02T13:45:29.875Z,26.46
2023-03-02T13:47:01.740Z,26.08
2023-03-02T13:48:33.518Z,24.57
2023-03-02T13:50:08.683Z,24.21
2023-03-02T13:51:42.711Z,24.12
2023-03-02T13:53:14.308Z,24.25
2023-03-02T13:54:47.156Z,23.17
2023-03-02T13:56:19.091Z,23.04
2023-03-02T13:57:52.786Z,22.21
2023-03-02T13:59:25.782Z,22.44
2023-03-02T14:00:57.668Z,22.06
2023-03-02T14:02:30.818Z,20.61
2023-03-02T14:04:03.617Z,21.63
2023-03-02T14:05:35.778Z,21.15
2023-03-02T14:07:07.529Z,20.58
2023-03-02T14:08:39.468Z,20.50
2023-03-02T14:10:13.209Z,20.69
2023-03-02T14:11:45.708Z,20.95
2023-03-02T14:13:21.541Z,20.87
2023-03-02T14:14:55.795Z,21.50
2023-03-02T14:16:28.136Z,20.53
2023-03-02T14:18:00.176Z,20.26
2023-03-02T14:19:31.742Z,20.53
2023-03-02T14:21:03.869Z,20.91
2023-03-02T14:22:36.611Z,21.56
2023-03-02T14:24:08.276Z,21.92
2023-03-02T14:25:41.340Z,22.59
2023-03-02T14:27:15.481Z,23.28
2023-03-02T14:28:53.613Z,23.51
2023-03-02T14:30:31.682Z,24.07
2023-03-02T14:32:04.511Z,24.28
2023-03-02T14:33:36.478Z,24.58
2023-03-02T14:35:11.440Z,25.12
2023-03-02T14:36:46.738Z,24.96
2023-03-02T14:38:20.604Z,25.21
2023-03-02T14:39:55.346Z,25.65
2023-03-02T14:41:27.959Z,25.57
2023-03-02T14:42:59.580Z,25.94
2023-03-02T14:44:32.581Z,25.92
2023-03-02T14:46:04.360Z,26.40
2023-03-02T14:47:35.986Z,26.22
2023-03-02T14:49:07.629Z,26.03
2023-03-02T14:50:40.618Z,26.69
2023-03-02T14:52:17.395Z,26.84
2023-03-02T14:53:51.151Z,27.37
2023-03-02T14:55:25.850Z,26.96
2023-03-02T14:56:57.582Z,27.13
2023-03-02T14:58:31.330Z,27.58
2023-03-02T15:00:05.433Z,27.18
2023-03-02T15:01:37.590Z,27.17
2023-03-02T15:03:13.282Z,27.10
2023-03-02T15:04:46.082Z,27.23
2023-03-02T15:06:24.803Z,27.31
2023-03-02T15:07:58.695Z,27.45
2023-03-02T15:09:31.718Z,27.37
2023-03-02T15:11:03.297Z,27.61
2023-03-02T15:12:34.971Z,28.19
2023-03-02T15:14:06.582Z,27.84
2023-03-02T15:15:40.392Z,28.11
2023-03-02T15:17:11.894Z,28.18
2023-03-02T15:18:43.606Z,27.62
2023-03-02T15:20:16.149Z,27.96
2023-03-02T15:21:47.768Z,28.13
2023-03-02T15:23:19.525Z,28.10
2023-03-02T15:24:51.175Z,28.36
2023-03-02T15:26:22.763Z,28.99
2023-03-02T15:27:55.042Z,28.09
2023-03-02T15:29:26.620Z,28.72
2023-03-02T15:31:05.894Z,28.63
2023-03-02T15:32:38.018Z,28.25
2023-03-02T15:34:09.934Z,28.43
2023-03-02T15:35:41.668Z,28.67
2023-03-02T15:37:13.282Z,28.55
2023-03-02T15:38:48.942Z,29.00
2023-03-02T15:40:20.848Z,29.34
2023-03-02T15:41:53.806Z,28.89
2023-03-02T15:43:25.451Z,29.15
2023-03-02T15:44:57.025Z,29.29
2023-03-02T15:46:31.456Z,28.81
2023-03-02T15:48:03.149Z,29.76
2023-03-02T15:49:34.739Z,29.92
2023-03-02T15:51:07.696Z,29.31
2023-03-02T15:52:42.018Z,29.47
2023-03-02T15:54:13.725Z,30.04
2023-03-02T15:55:45.772Z,30.16
2023-03-02T15:57:17.704Z,29.97
2023-03-02T15:58:50.116Z,29.84
2023-03-02T16:00:22.726Z,30.39
2023-03-02T16:02:15.146Z,29.94
2023-03-02T16:03:46.833Z,29.78
2023-03-02T16:05:18.431Z,29.83
2023-03-02T16:06:50.068Z,30.04
2023-03-02T16:08:21.640Z,31.04
2023-03-02T16:09:53.221Z,30.99
2023-03-02T16:11:24.843Z,32.00
2023-03-02T16:12:56.517Z,32.66
2023-03-02T16:14:28.106Z,32.84
2023-03-02T16:16:01.328Z,32.75
2023-03-02T16:17:34.300Z,34.30
2023-03-02T16:19:05.890Z,33.74
2023-03-02T16:20:38.350Z,34.49
2023-03-02T16:22:10.277Z,34.62
2023-03-02T16:23:42.170Z,34.21
2023-03-02T16:25:13.753Z,34.34
2023-03-02T16:26:45.634Z,34.48
2023-03-02T16:28:18.584Z,34.39
2023-03-02T16:29:52.569Z,35.33
2023-03-02T16:31:28.037Z,35.44
2023-03-02T16:33:02.882Z,35.55
2023-03-02T16:34:34.491Z,35.38
2023-03-02T16:36:06.933Z,36.07
2023-03-02T16:37:39.407Z,36.00
2023-03-02T16:39:11.576Z,36.37
2023-03-02T16:40:43.209Z,36.54
2023-03-02T16:42:15.013Z,36.58
2023-03-02T16:43:48.180Z,36.64
2023-03-02T16:45:20.220Z,36.76
2023-03-02T16:46:52.012Z,36.82
2023-03-02T16:48:24.974Z,36.94
2023-03-02T16:49:57.817Z,37.41
2023-03-02T16:51:29.526Z,37.15
2023-03-02T16:53:01.158Z,37.02
2023-03-02T16:54:32.780Z,37.42
2023-03-02T16:56:04.597Z,37.85
2023-03-02T16:57:36.486Z,37.99
2023-03-02T16:59:08.095Z,37.70
2023-03-02T17:00:40.011Z,38.05
2023-03-02T17:02:11.676Z,38.40
2023-03-02T17:03:44.966Z,38.46
2023-03-02T17:05:19.325Z,38.41
2023-03-02T17:07:00.565Z,38.15
2023-03-02T17:08:34.119Z,38.65
2023-03-02T17:10:06.802Z,38.84
2023-03-02T17:11:45.825Z,39.36
2023-03-02T17:13:17.360Z,39.69
2023-03-02T17:14:49.067Z,39.94
2023-03-02T17:16:20.936Z,40.30
2023-03-02T17:17:53.222Z,40.59
2023-03-02T17:19:30.067Z,40.65
2023-03-02T17:21:03.264Z,40.93
2023-03-02T17:22:34.890Z,41.17
2023-03-02T17:24:07.334Z,41.80
2023-03-02T17:25:39.276Z,41.86
2023-03-02T17:27:24.150Z,41.39
2023-03-02T17:28:56.315Z,41.40
2023-03-02T17:30:27.916Z,41.43
2023-03-02T17:31:59.618Z,41.63
2023-03-02T17:33:32.145Z,41.33
2023-03-02T17:35:07.885Z,42.32
2023-03-02T17:36:39.848Z,42.31
2023-03-02T17:38:13.151Z,42.51
2023-03-02T17:39:45.266Z,42.83
2023-03-02T17:41:17.094Z,43.54
2023-03-02T17:42:48.752Z,42.90
2023-03-02T17:44:20.539Z,43.29
2023-03-02T17:45:52.667Z,43.53
2023-03-02T17:47:24.526Z,43.63
2023-03-02T17:48:56.977Z,43.62
2023-03-02T17:50:32.793Z,44.08
2023-03-02T17:52:06.036Z,44.16
2023-03-02T17:53:38.308Z,44.30
2023-03-02T17:55:10.603Z,44.35
2023-03-02T17:56:44.471Z,44.83
2023-03-02T17:58:16.519Z,44.43
2023-03-02T17:59:48.323Z,44.49
2023-03-02T18:01:19.845Z,44.68
2023-03-02T18:02:51.881Z,44.83
2023-03-02T18:04:23.479Z,44.33
2023-03-02T18:05:56.484Z,44.38
2023-03-02T18:07:28.027Z,45.33
2023-03-02T18:08:59.646Z,45.18
2023-03-02T18:10:31.243Z,45.19
2023-03-02T18:12:03.368Z,45.45
2023-03-02T18:13:35.259Z,45.29
2023-03-02T18:15:07.796Z,45.37
2023-03-02T18:16:39.435Z,45.76
2023-03-02T18:18:12.487Z,45.85
2023-03-02T18:19:45.484Z,46.07
2023-03-02T18:21:18.585Z,46.26
2023-03-02T18:22:50.651Z,46.00
2023-03-02T18:24:22.255Z,45.78
2023-03-02T18:25:53.858Z,45.80
2023-03-02T18:27:26.890Z,46.33
2023-03-02T18:28:58.504Z,45.95
2023-03-02T18:30:30.067Z,46.44
2023-03-02T18:32:02.538Z,45.99
2023-03-02T18:33:34.496Z,46.24
2023-03-02T18:35:06.334Z,46.12
2023-03-02T18:36:39.470Z,47.04
2023-03-02T18:38:11.113Z,46.58
2023-03-02T18:39:46.159Z,46.46
2023-03-02T18:41:18.067Z,46.78
2023-03-02T18:42:50.434Z,47.39
2023-03-02T18:44:27.725Z,46.73
2023-03-02T18:45:59.399Z,46.89
2023-03-02T18:47:34.056Z,47.20
2023-03-02T18:49:05.659Z,47.23
2023-03-02T18:50:38.147Z,47.71
2023-03-02T18:52:16.531Z,47.13
2023-03-02T18:53:49.263Z,47.73
2023-03-02T18:55:22.341Z,48.19
2023-03-02T18:56:53.882Z,47.87
2023-03-02T18:58:25.641Z,48.16
2023-03-02T18:59:57.309Z,48.32
2023-03-02T19:01:30.340Z,49.08
2023-03-02T19:03:02.226Z,49.83
2023-03-02T19:04:34.341Z,50.07
2023-03-02T19:06:07.361Z,50.73
2023-03-02T19:07:40.430Z,50.06
2023-03-02T19:09:12.078Z,50.40
2023-03-02T19:10:45.063Z,50.84
2023-03-02T19:12:18.493Z,50.97
2023-03-02T19:13:50.076Z,52.29
2023-03-02T19:15:21.918Z,52.12
2023-03-02T19:16:53.570Z,52.51
2023-03-02T19:18:25.221Z,52.92
2023-03-02T19:19:57.502Z,52.32
2023-03-02T19:21:29.201Z,52.67
2023-03-02T19:23:03.101Z,52.84
2023-03-02T19:24:35.274Z,53.28
2023-03-02T19:26:06.994Z,53.62
2023-03-02T19:27:39.205Z,53.79
2023-03-02T19:29:10.845Z,54.14
2023-03-02T19:30:42.770Z,53.46
2023-03-02T19:32:17.030Z,53.70
2023-03-02T19:33:49.054Z,53.61
2023-03-02T19:35:23.253Z,53.62
2023-03-02T19:36:55.345Z,53.50
2023-03-02T19:38:29.368Z,53.75
2023-03-02T19:40:01.179Z,53.78
2023-03-02T19:41:37.555Z,53.83
2023-03-02T19:43:09.247Z,54.02
2023-03-02T19:44:41.016Z,54.19
2023-03-02T19:46:15.292Z,54.30
2023-03-02T19:47:47.599Z,54.10
2023-03-02T19:49:19.470Z,54.34
2023-03-02T19:50:52.853Z,54.44
2023-03-02T19:52:25.493Z,54.89
2023-03-02T19:53:58.561Z,54.46
2023-03-02T19:55:30.190Z,54.46
2023-03-02T19:57:06.073Z,54.78
2023-03-02T19:58:46.537Z,54.17
2023-03-02T20:00:20.489Z,54.31
2023-03-02T20:01:52.866Z,54.24
2023-03-02T20:03:24.645Z,54.58
2023-03-02T20:04:58.858Z,54.66